sensor_id;sensor_type;location;lat;lon;timestamp;temperature;humidity
38854;DHT22;24606;51.992;4.198;2023-04-03T00:00:34;19.60;72.30
38854;DHT22;24606;51.992;4.198;2023-04-03T00:05:36;19.50;72.60
38854;DHT22;24606;51.992;4.198;2023-04-03T00:10:40;19.50;72.40
38854;DHT22;24606;51.992;4.198;2023-04-03T00:15:42;19.50;72.60
38854;DHT22;24606;51.992;4.198;2023-04-03T00:20:44;19.50;72.50
38854;DHT22;24606;51.992;4.198;2023-04-03T00:25:47;19.40;72.90
38854;DHT22;24606;51.992;4.198;2023-04-03T00:30:50;19.40;72.70
38854;DHT22;24606;51.992;4.198;2023-04-03T00:35:52;19.40;72.70
38854;DHT22;24606;51.992;4.198;2023-04-03T00:40:55;19.30;72.90
38854;DHT22;24606;51.992;4.198;2023-04-03T00:45:58;19.30;72.80
38854;DHT22;24606;51.992;4.198;2023-04-03T00:51:01;19.30;72.80
38854;DHT22;24606;51.992;4.198;2023-04-03T00:56:07;19.30;72.80
38854;DHT22;24606;51.992;4.198;2023-04-03T01:01:14;19.20;72.70
38854;DHT22;24606;51.992;4.198;2023-04-03T01:06:20;19.20;72.90
38854;DHT22;24606;51.992;4.198;2023-04-03T01:11:24;19.20;72.70
38854;DHT22;24606;51.992;4.198;2023-04-03T01:16:26;19.10;72.80
38854;DHT22;24606;51.992;4.198;2023-04-03T01:22:03;19.10;72.50
38854;DHT22;24606;51.992;4.198;2023-04-03T01:27:10;19.10;72.90
38854;DHT22;24606;51.992;4.198;2023-04-03T01:32:14;19.00;72.90
38854;DHT22;24606;51.992;4.198;2023-04-03T01:37:16;19.00;73.10
38854;DHT22;24606;51.992;4.198;2023-04-03T01:42:17;19.00;72.80
38854;DHT22;24606;51.992;4.198;2023-04-03T01:47:21;19.00;73.10
38854;DHT22;24606;51.992;4.198;2023-04-03T01:52:23;19.00;72.80
38854;DHT22;24606;51.992;4.198;2023-04-03T01:57:25;18.90;72.90
38854;DHT22;24606;51.992;4.198;2023-04-03T02:02:28;18.90;72.60
38854;DHT22;24606;51.992;4.198;2023-04-03T02:07:30;18.90;72.70
38854;DHT22;24606;51.992;4.198;2023-04-03T02:12:32;18.90;72.50
38854;DHT22;24606;51.992;4.198;2023-04-03T02:17:36;18.90;72.90
38854;DHT22;24606;51.992;4.198;2023-04-03T02:22:38;18.80;72.80
38854;DHT22;24606;51.992;4.198;2023-04-03T02:27:41;18.80;72.80
38854;DHT22;24606;51.992;4.198;2023-04-03T02:32:44;18.80;72.70
38854;DHT22;24606;51.992;4.198;2023-04-03T02:37:46;18.80;72.70
38854;DHT22;24606;51.992;4.198;2023-04-03T02:42:48;18.70;72.40
38854;DHT22;24606;51.992;4.198;2023-04-03T02:47:51;18.70;72.70
38854;DHT22;24606;51.992;4.198;2023-04-03T02:52:53;18.70;72.60
38854;DHT22;24606;51.992;4.198;2023-04-03T02:57:55;18.70;73.20
38854;DHT22;24606;51.992;4.198;2023-04-03T03:02:59;18.60;72.60
38854;DHT22;24606;51.992;4.198;2023-04-03T03:08:00;18.60;72.50
38854;DHT22;24606;51.992;4.198;2023-04-03T03:13:02;18.60;72.80
38854;DHT22;24606;51.992;4.198;2023-04-03T03:18:05;18.60;72.30
38854;DHT22;24606;51.992;4.198;2023-04-03T03:23:07;18.60;72.20
38854;DHT22;24606;51.992;4.198;2023-04-03T03:28:09;18.50;72.10
38854;DHT22;24606;51.992;4.198;2023-04-03T03:33:13;18.50;71.90
38854;DHT22;24606;51.992;4.198;2023-04-03T03:38:15;18.50;72.10
38854;DHT22;24606;51.992;4.198;2023-04-03T03:43:17;18.50;72.10
38854;DHT22;24606;51.992;4.198;2023-04-03T03:48:21;18.50;72.10
38854;DHT22;24606;51.992;4.198;2023-04-03T03:53:23;18.50;71.90
38854;DHT22;24606;51.992;4.198;2023-04-03T03:58:25;18.40;72.00
38854;DHT22;24606;51.992;4.198;2023-04-03T04:03:28;18.40;72.00
38854;DHT22;24606;51.992;4.198;2023-04-03T04:08:30;18.40;72.00
38854;DHT22;24606;51.992;4.198;2023-04-03T04:13:32;18.30;72.20
38854;DHT22;24606;51.992;4.198;2023-04-03T04:18:35;18.30;72.10
38854;DHT22;24606;51.992;4.198;2023-04-03T04:23:37;18.30;71.50
38854;DHT22;24606;51.992;4.198;2023-04-03T04:28:39;18.20;72.40
38854;DHT22;24606;51.992;4.198;2023-04-03T04:33:42;18.30;71.90
38854;DHT22;24606;51.992;4.198;2023-04-03T04:38:44;18.30;71.40
38854;DHT22;24606;51.992;4.198;2023-04-03T04:43:46;18.40;71.30
38854;DHT22;24606;51.992;4.198;2023-04-03T04:48:49;18.40;71.10
38854;DHT22;24606;51.992;4.198;2023-04-03T04:53:51;18.50;71.20
38854;DHT22;24606;51.992;4.198;2023-04-03T04:58:53;18.50;71.00
38854;DHT22;24606;51.992;4.198;2023-04-03T05:03:56;18.50;71.40
38854;DHT22;24606;51.992;4.198;2023-04-03T05:08:58;18.50;71.20
38854;DHT22;24606;51.992;4.198;2023-04-03T05:14:00;18.50;70.90
38854;DHT22;24606;51.992;4.198;2023-04-03T05:19:03;18.50;71.20
38854;DHT22;24606;51.992;4.198;2023-04-03T05:24:06;18.50;71.10
38854;DHT22;24606;51.992;4.198;2023-04-03T05:29:09;18.50;71.40
38854;DHT22;24606;51.992;4.198;2023-04-03T05:34:13;18.50;71.10
38854;DHT22;24606;51.992;4.198;2023-04-03T05:39:15;18.50;71.60
38854;DHT22;24606;51.992;4.198;2023-04-03T05:44:17;18.50;71.10
38854;DHT22;24606;51.992;4.198;2023-04-03T05:49:20;18.50;71.40
38854;DHT22;24606;51.992;4.198;2023-04-03T05:54:24;18.50;71.20
38854;DHT22;24606;51.992;4.198;2023-04-03T05:59:26;18.50;71.20
38854;DHT22;24606;51.992;4.198;2023-04-03T06:15:28;18.70;69.90
38854;DHT22;24606;51.992;4.198;2023-04-03T06:20:30;18.50;71.00
38854;DHT22;24606;51.992;4.198;2023-04-03T06:25:32;18.50;71.00
38854;DHT22;24606;51.992;4.198;2023-04-03T06:30:36;18.50;70.90
38854;DHT22;24606;51.992;4.198;2023-04-03T06:35:38;18.60;70.80
38854;DHT22;24606;51.992;4.198;2023-04-03T06:40:40;18.50;71.10
38854;DHT22;24606;51.992;4.198;2023-04-03T06:45:43;18.50;71.50
38854;DHT22;24606;51.992;4.198;2023-04-03T06:50:45;18.50;71.70
38854;DHT22;24606;51.992;4.198;2023-04-03T06:55:47;18.40;72.30
38854;DHT22;24606;51.992;4.198;2023-04-03T07:00:50;18.30;72.60
38854;DHT22;24606;51.992;4.198;2023-04-03T07:05:52;18.20;72.90
38854;DHT22;24606;51.992;4.198;2023-04-03T07:10:54;18.20;73.00
38854;DHT22;24606;51.992;4.198;2023-04-03T07:15:58;18.30;72.40
38854;DHT22;24606;51.992;4.198;2023-04-03T07:21:01;18.30;72.00
38854;DHT22;24606;51.992;4.198;2023-04-03T07:26:03;18.30;71.60
38854;DHT22;24606;51.992;4.198;2023-04-03T07:31:08;18.30;71.10
38854;DHT22;24606;51.992;4.198;2023-04-03T07:36:15;18.40;70.50
38854;DHT22;24606;51.992;4.198;2023-04-03T07:41:19;18.40;69.90
38854;DHT22;24606;51.992;4.198;2023-04-03T07:46:24;18.50;69.40
38854;DHT22;24606;51.992;4.198;2023-04-03T07:51:26;18.50;69.10
38854;DHT22;24606;51.992;4.198;2023-04-03T07:56:30;18.60;68.90
38854;DHT22;24606;51.992;4.198;2023-04-03T08:01:34;18.60;68.30
38854;DHT22;24606;51.992;4.198;2023-04-03T08:06:35;18.40;70.00
38854;DHT22;24606;51.992;4.198;2023-04-03T08:11:38;18.20;70.50
38854;DHT22;24606;51.992;4.198;2023-04-03T08:16:42;18.50;68.30
38854;DHT22;24606;51.992;4.198;2023-04-03T08:21:44;18.50;68.20
38854;DHT22;24606;51.992;4.198;2023-04-03T08:26:47;18.40;69.20
38854;DHT22;24606;51.992;4.198;2023-04-03T08:31:50;18.50;68.70
38854;DHT22;24606;51.992;4.198;2023-04-03T08:36:52;18.80;66.20
38854;DHT22;24606;51.992;4.198;2023-04-03T08:41:57;18.80;65.90
38854;DHT22;24606;51.992;4.198;2023-04-03T08:47:12;18.80;66.70
38854;DHT22;24606;51.992;4.198;2023-04-03T08:52:21;18.60;67.30
38854;DHT22;24606;51.992;4.198;2023-04-03T08:57:29;18.70;66.40
38854;DHT22;24606;51.992;4.198;2023-04-03T09:02:40;18.80;66.00
38854;DHT22;24606;51.992;4.198;2023-04-03T09:07:45;18.80;66.70
38854;DHT22;24606;51.992;4.198;2023-04-03T09:12:53;18.90;63.50
38854;DHT22;24606;51.992;4.198;2023-04-03T09:18:02;19.00;66.00
38854;DHT22;24606;51.992;4.198;2023-04-03T09:23:15;19.00;65.70
38854;DHT22;24606;51.992;4.198;2023-04-03T09:28:18;19.10;63.40
38854;DHT22;24606;51.992;4.198;2023-04-03T09:33:22;19.00;63.50
38854;DHT22;24606;51.992;4.198;2023-04-03T09:38:24;19.00;68.00
38854;DHT22;24606;51.992;4.198;2023-04-03T09:43:29;19.20;68.00
38854;DHT22;24606;51.992;4.198;2023-04-03T09:48:32;18.80;65.80
38854;DHT22;24606;51.992;4.198;2023-04-03T09:53:36;19.10;67.40
38854;DHT22;24606;51.992;4.198;2023-04-03T09:58:39;19.50;59.60
38854;DHT22;24606;51.992;4.198;2023-04-03T10:03:43;19.40;66.20
38854;DHT22;24606;51.992;4.198;2023-04-03T10:08:58;19.40;60.00
38854;DHT22;24606;51.992;4.198;2023-04-03T10:14:02;19.20;67.80
38854;DHT22;24606;51.992;4.198;2023-04-03T10:19:19;19.10;67.30
38854;DHT22;24606;51.992;4.198;2023-04-03T10:24:27;19.10;68.00
38854;DHT22;24606;51.992;4.198;2023-04-03T10:29:42;19.60;62.90
38854;DHT22;24606;51.992;4.198;2023-04-03T10:34:51;19.40;65.20
38854;DHT22;24606;51.992;4.198;2023-04-03T10:39:59;19.00;68.30
38854;DHT22;24606;51.992;4.198;2023-04-03T10:45:18;19.30;57.20
38854;DHT22;24606;51.992;4.198;2023-04-03T10:50:38;19.40;65.90
38854;DHT22;24606;51.992;4.198;2023-04-03T10:55:45;19.60;62.50
38854;DHT22;24606;51.992;4.198;2023-04-03T11:00:50;19.70;64.30
38854;DHT22;24606;51.992;4.198;2023-04-03T11:05:55;19.90;58.80
38854;DHT22;24606;51.992;4.198;2023-04-03T11:11:00;19.70;57.70
38854;DHT22;24606;51.992;4.198;2023-04-03T11:16:04;19.60;64.50
38854;DHT22;24606;51.992;4.198;2023-04-03T11:21:14;19.90;61.90
38854;DHT22;24606;51.992;4.198;2023-04-03T11:26:20;20.00;59.80
38854;DHT22;24606;51.992;4.198;2023-04-03T11:31:33;19.80;61.60
38854;DHT22;24606;51.992;4.198;2023-04-03T11:36:42;19.60;61.80
38854;DHT22;24606;51.992;4.198;2023-04-03T11:41:47;20.00;59.20
38854;DHT22;24606;51.992;4.198;2023-04-03T11:46:51;19.70;57.30
38854;DHT22;24606;51.992;4.198;2023-04-03T11:51:54;19.80;61.70
38854;DHT22;24606;51.992;4.198;2023-04-03T11:56:57;19.90;58.20
38854;DHT22;24606;51.992;4.198;2023-04-03T12:01:59;19.90;61.40
38854;DHT22;24606;51.992;4.198;2023-04-03T12:07:18;20.00;57.90
38854;DHT22;24606;51.992;4.198;2023-04-03T12:12:38;20.00;54.40
38854;DHT22;24606;51.992;4.198;2023-04-03T12:17:41;19.90;53.00
38854;DHT22;24606;51.992;4.198;2023-04-03T12:22:54;19.90;58.60
38854;DHT22;24606;51.992;4.198;2023-04-03T12:28:10;20.20;51.90
38854;DHT22;24606;51.992;4.198;2023-04-03T12:33:20;20.10;55.00
38854;DHT22;24606;51.992;4.198;2023-04-03T12:38:37;20.20;58.30
38854;DHT22;24606;51.992;4.198;2023-04-03T12:43:50;19.60;55.70
38854;DHT22;24606;51.992;4.198;2023-04-03T12:48:58;20.50;61.70
38854;DHT22;24606;51.992;4.198;2023-04-03T12:54:04;20.80;60.70
38854;DHT22;24606;51.992;4.198;2023-04-03T12:59:16;20.60;59.50
38854;DHT22;24606;51.992;4.198;2023-04-03T13:04:20;20.30;53.00
38854;DHT22;24606;51.992;4.198;2023-04-03T13:09:25;20.90;50.80
38854;DHT22;24606;51.992;4.198;2023-04-03T13:14:28;21.10;52.20
38854;DHT22;24606;51.992;4.198;2023-04-03T13:19:31;20.70;58.40
38854;DHT22;24606;51.992;4.198;2023-04-03T13:24:37;21.20;53.50
38854;DHT22;24606;51.992;4.198;2023-04-03T13:29:40;21.10;51.40
38854;DHT22;24606;51.992;4.198;2023-04-03T13:34:43;21.50;57.60
38854;DHT22;24606;51.992;4.198;2023-04-03T13:39:58;21.60;53.40
38854;DHT22;24606;51.992;4.198;2023-04-03T13:45:17;21.10;56.60
38854;DHT22;24606;51.992;4.198;2023-04-03T13:50:23;21.80;54.50
38854;DHT22;24606;51.992;4.198;2023-04-03T13:55:29;22.00;50.20
38854;DHT22;24606;51.992;4.198;2023-04-03T14:00:36;21.80;54.50
38854;DHT22;24606;51.992;4.198;2023-04-03T14:05:39;22.00;53.40
38854;DHT22;24606;51.992;4.198;2023-04-03T14:10:43;21.80;44.80
38854;DHT22;24606;51.992;4.198;2023-04-03T14:15:46;21.90;43.60
38854;DHT22;24606;51.992;4.198;2023-04-03T14:20:49;21.90;52.70
38854;DHT22;24606;51.992;4.198;2023-04-03T14:25:53;22.20;52.50
38854;DHT22;24606;51.992;4.198;2023-04-03T14:30:55;22.40;53.50
38854;DHT22;24606;51.992;4.198;2023-04-03T14:35:57;22.50;54.20
38854;DHT22;24606;51.992;4.198;2023-04-03T14:41:00;22.50;56.00
38854;DHT22;24606;51.992;4.198;2023-04-03T14:46:02;22.80;51.00
38854;DHT22;24606;51.992;4.198;2023-04-03T14:51:04;22.80;54.90
38854;DHT22;24606;51.992;4.198;2023-04-03T14:56:13;23.00;51.50
38854;DHT22;24606;51.992;4.198;2023-04-03T15:01:16;22.90;53.90
38854;DHT22;24606;51.992;4.198;2023-04-03T15:06:18;23.00;51.90
38854;DHT22;24606;51.992;4.198;2023-04-03T15:11:22;23.30;52.60
38854;DHT22;24606;51.992;4.198;2023-04-03T15:16:24;23.50;53.50
38854;DHT22;24606;51.992;4.198;2023-04-03T15:21:26;23.70;57.80
38854;DHT22;24606;51.992;4.198;2023-04-03T15:26:29;23.90;53.00
38854;DHT22;24606;51.992;4.198;2023-04-03T15:31:32;23.90;54.20
38854;DHT22;24606;51.992;4.198;2023-04-03T15:36:33;24.00;56.30
38854;DHT22;24606;51.992;4.198;2023-04-03T15:41:37;24.20;51.60
38854;DHT22;24606;51.992;4.198;2023-04-03T15:46:39;24.20;53.90
38854;DHT22;24606;51.992;4.198;2023-04-03T15:51:41;24.30;51.10
38854;DHT22;24606;51.992;4.198;2023-04-03T15:56:45;24.20;51.70
38854;DHT22;24606;51.992;4.198;2023-04-03T16:01:47;25.00;49.80
38854;DHT22;24606;51.992;4.198;2023-04-03T16:06:50;26.00;52.80
38854;DHT22;24606;51.992;4.198;2023-04-03T16:11:54;25.30;56.20
38854;DHT22;24606;51.992;4.198;2023-04-03T16:16:57;25.00;51.70
38854;DHT22;24606;51.992;4.198;2023-04-03T16:21:59;25.10;52.20
38854;DHT22;24606;51.992;4.198;2023-04-03T16:27:02;25.40;53.80
38854;DHT22;24606;51.992;4.198;2023-04-03T16:32:04;25.40;56.70
38854;DHT22;24606;51.992;4.198;2023-04-03T16:37:06;25.80;94.20
38854;DHT22;24606;51.992;4.198;2023-04-03T16:42:10;26.40;63.40
38854;DHT22;24606;51.992;4.198;2023-04-03T16:47:12;26.90;70.50
38854;DHT22;24606;51.992;4.198;2023-04-03T16:52:14;26.80;92.80
38854;DHT22;24606;51.992;4.198;2023-04-03T16:57:17;27.10;61.80
38854;DHT22;24606;51.992;4.198;2023-04-03T17:02:21;26.90;68.40
38854;DHT22;24606;51.992;4.198;2023-04-03T17:07:25;27.40;99.90
38854;DHT22;24606;51.992;4.198;2023-04-03T17:12:28;27.30;92.50
38854;DHT22;24606;51.992;4.198;2023-04-03T17:17:31;27.60;80.00
38854;DHT22;24606;51.992;4.198;2023-04-03T17:22:33;27.50;99.90
38854;DHT22;24606;51.992;4.198;2023-04-03T17:27:36;27.60;86.50
38854;DHT22;24606;51.992;4.198;2023-04-03T17:32:38;26.40;55.80
38854;DHT22;24606;51.992;4.198;2023-04-03T17:37:40;26.10;53.80
38854;DHT22;24606;51.992;4.198;2023-04-03T17:42:43;26.20;52.50
38854;DHT22;24606;51.992;4.198;2023-04-03T17:47:45;26.10;53.80
38854;DHT22;24606;51.992;4.198;2023-04-03T17:52:47;26.10;53.60
38854;DHT22;24606;51.992;4.198;2023-04-03T17:57:50;26.10;51.90
38854;DHT22;24606;51.992;4.198;2023-04-03T18:02:52;26.20;51.80
38854;DHT22;24606;51.992;4.198;2023-04-03T18:07:55;26.00;52.60
38854;DHT22;24606;51.992;4.198;2023-04-03T18:12:59;25.80;52.50
38854;DHT22;24606;51.992;4.198;2023-04-03T18:18:01;25.60;52.40
38854;DHT22;24606;51.992;4.198;2023-04-03T18:23:03;25.70;51.70
38854;DHT22;24606;51.992;4.198;2023-04-03T18:28:07;25.50;51.70
38854;DHT22;24606;51.992;4.198;2023-04-03T18:33:09;25.50;51.40
38854;DHT22;24606;51.992;4.198;2023-04-03T18:38:11;25.10;51.80
38854;DHT22;24606;51.992;4.198;2023-04-03T18:43:15;25.20;51.90
38854;DHT22;24606;51.992;4.198;2023-04-03T18:48:17;25.00;51.70
38854;DHT22;24606;51.992;4.198;2023-04-03T18:53:21;24.90;52.10
38854;DHT22;24606;51.992;4.198;2023-04-03T18:58:24;24.80;51.70
38854;DHT22;24606;51.992;4.198;2023-04-03T19:03:26;24.60;51.90
38854;DHT22;24606;51.992;4.198;2023-04-03T19:08:29;24.50;51.60
38854;DHT22;24606;51.992;4.198;2023-04-03T19:13:32;24.40;52.20
38854;DHT22;24606;51.992;4.198;2023-04-03T19:18:34;24.30;52.20
38854;DHT22;24606;51.992;4.198;2023-04-03T19:23:36;24.20;52.40
38854;DHT22;24606;51.992;4.198;2023-04-03T19:28:40;24.10;52.30
38854;DHT22;24606;51.992;4.198;2023-04-03T19:33:42;23.90;52.60
38854;DHT22;24606;51.992;4.198;2023-04-03T19:38:44;23.80;53.10
38854;DHT22;24606;51.992;4.198;2023-04-03T19:43:47;23.70;53.20
38854;DHT22;24606;51.992;4.198;2023-04-03T19:48:50;23.60;53.20
38854;DHT22;24606;51.992;4.198;2023-04-03T19:53:52;23.50;53.40
38854;DHT22;24606;51.992;4.198;2023-04-03T19:58:55;23.40;53.50
38854;DHT22;24606;51.992;4.198;2023-04-03T20:03:57;23.30;54.00
38854;DHT22;24606;51.992;4.198;2023-04-03T20:08:59;23.20;54.20
38854;DHT22;24606;51.992;4.198;2023-04-03T20:14:02;23.20;54.30
38854;DHT22;24606;51.992;4.198;2023-04-03T20:19:05;23.10;54.30
38854;DHT22;24606;51.992;4.198;2023-04-03T20:24:07;23.00;55.00
38854;DHT22;24606;51.992;4.198;2023-04-03T20:29:11;22.90;55.00
38854;DHT22;24606;51.992;4.198;2023-04-03T20:34:14;22.80;55.70
38854;DHT22;24606;51.992;4.198;2023-04-03T20:39:15;22.70;55.60
38854;DHT22;24606;51.992;4.198;2023-04-03T20:44:20;22.60;55.80
38854;DHT22;24606;51.992;4.198;2023-04-03T20:49:22;22.60;56.40
38854;DHT22;24606;51.992;4.198;2023-04-03T20:54:24;22.50;56.70
38854;DHT22;24606;51.992;4.198;2023-04-03T20:59:27;22.30;58.20
38854;DHT22;24606;51.992;4.198;2023-04-03T21:04:34;22.10;58.40
38854;DHT22;24606;51.992;4.198;2023-04-03T21:20:49;21.70;59.60
38854;DHT22;24606;51.992;4.198;2023-04-03T21:25:51;21.60;58.70
38854;DHT22;24606;51.992;4.198;2023-04-03T21:30:53;21.60;58.20
38854;DHT22;24606;51.992;4.198;2023-04-03T21:35:56;21.60;58.30
38854;DHT22;24606;51.992;4.198;2023-04-03T21:40:59;21.60;58.30
38854;DHT22;24606;51.992;4.198;2023-04-03T21:46:01;21.40;58.50
38854;DHT22;24606;51.992;4.198;2023-04-03T21:51:06;21.40;58.70
38854;DHT22;24606;51.992;4.198;2023-04-03T21:56:08;21.40;58.80
38854;DHT22;24606;51.992;4.198;2023-04-03T22:01:12;21.30;58.80
38854;DHT22;24606;51.992;4.198;2023-04-03T22:06:15;21.20;59.10
38854;DHT22;24606;51.992;4.198;2023-04-03T22:11:17;21.20;59.20
38854;DHT22;24606;51.992;4.198;2023-04-03T22:16:22;21.10;59.30
38854;DHT22;24606;51.992;4.198;2023-04-03T22:21:25;21.10;59.50
38854;DHT22;24606;51.992;4.198;2023-04-03T22:26:27;21.10;59.50
38854;DHT22;24606;51.992;4.198;2023-04-03T22:31:29;21.00;59.70
38854;DHT22;24606;51.992;4.198;2023-04-03T22:36:32;20.90;59.80
38854;DHT22;24606;51.992;4.198;2023-04-03T22:41:34;20.90;59.80
38854;DHT22;24606;51.992;4.198;2023-04-03T22:46:36;20.80;60.00
38854;DHT22;24606;51.992;4.198;2023-04-03T22:51:39;20.80;60.10
38854;DHT22;24606;51.992;4.198;2023-04-03T22:56:41;20.80;60.20
38854;DHT22;24606;51.992;4.198;2023-04-03T23:01:43;20.70;60.10
38854;DHT22;24606;51.992;4.198;2023-04-03T23:06:46;20.70;60.30
38854;DHT22;24606;51.992;4.198;2023-04-03T23:11:48;20.60;60.60
38854;DHT22;24606;51.992;4.198;2023-04-03T23:16:50;20.60;60.40
38854;DHT22;24606;51.992;4.198;2023-04-03T23:21:53;20.50;60.80
38854;DHT22;24606;51.992;4.198;2023-04-03T23:26:55;20.50;60.70
38854;DHT22;24606;51.992;4.198;2023-04-03T23:31:57;20.50;60.80
38854;DHT22;24606;51.992;4.198;2023-04-03T23:37:01;20.40;60.90
38854;DHT22;24606;51.992;4.198;2023-04-03T23:42:03;20.30;61.10
38854;DHT22;24606;51.992;4.198;2023-04-03T23:47:08;20.30;61.10
38854;DHT22;24606;51.992;4.198;2023-04-03T23:52:11;20.30;61.00
38854;DHT22;24606;51.992;4.198;2023-04-03T23:57:13;20.30;61.10
